KSAC

Sacramento Executive Airport

Sacramento, California, USA
METAR KSAC 170253Z 14003KT 10SM CLR 21/02 A3000 RMK AO2 SLP157 T02060022 53003
Observed Flight Rules
Oct-17 @ 02:53 UTC (24 minutes ago) Visual Flight Rules
Wind Visibility Clouds
140° at 3 knots 10 miles
  • Clear skies
Temperatures Readings
Current 21°C / 70°F
Dewpoint 2°C / 36°F
Humidity 29%
Altimeter 30" Hg
Pressure 1015.7 hPa
Elevation 11
METAR KSAC 170253Z 14003KT 10SM CLR 21/02 A3000 RMK AO2 SLP157 T02060022 53003
Observed Flight Rules
Oct-17 @ 02:53 UTC
(24 minutes ago)
VFR
Wind Visibility
140° at 3 knots 10 miles
Clouds
  • Clear skies
Temperature Dewpoint
21°C / 70°F 2°C / 36°F
Humidity Altimeter Pressure
29% 30" Hg 1015.7 hPa